Trigger — WDF7822 — position and weather

sailwx.info

Track history (hours):
 
Tides and Currents Weather Stations Pressure Air Temp Water Temp Dewpoint Dewpoint Depression Visibility Wind Speed Wind Dir Waves Ship Positions

Trigger

Owner: Harley Marine Services, INC, Seattle, WA. More information available from US FCC via Universal Licensing System.

Last reported at 2017-Oct-20 15:59 UTC. Time now 2017-Oct-20 16:03 UTC.
Position N 29°44' W 095°17'.

Length 31 m; draft 3.2 m.

Type: Towing. MMSI: 367488490.

Date/timePositionNaut miles runAvg speedWind from/ knotsBaromVisibWave heightAir tempDewpointWater temp
2017-Oct-20 15:59N 29°44' W 095°17'0 0.0
2017-Oct-20 15:29N 29°44' W 095°17'0 0.0
2017-Oct-20 14:59N 29°44' W 095°17'4 3.7
2017-Oct-20 13:51N 29°45' W 095°12'2 0.1
2017-Oct-19 16:04N 29°44' W 095°14'1 0.5
2017-Oct-19 14:16N 29°43' W 095°15'0 0.0
2017-Oct-19 12:07N 29°43' W 095°15'0 0.3
2017-Oct-19 11:46N 29°43' W 095°15'3 6.7
2017-Oct-19 11:22N 29°45' W 095°12'8 0.2
2017-Oct-17 12:41N 29°44' W 095°03'2 6.4
2017-Oct-17 12:20N 29°42' W 095°01'2 5.9
2017-Oct-17 12:00N 29°41' W 094°59'0 0.6
2017-Oct-17 11:28N 29°41' W 094°60'0 0.0
2017-Oct-17 10:37N 29°41' W 094°60'0 0.0
2017-Oct-17 10:10N 29°41' W 094°60'0 0.0
2017-Oct-17 09:58N 29°41' W 094°60'0 0.0
2017-Oct-17 09:04N 29°41' W 094°60'0 0.0
2017-Oct-17 08:49N 29°41' W 094°60'0 0.0
2017-Oct-17 07:46N 29°41' W 094°60'0 0.0
2017-Oct-17 07:25N 29°41' W 094°60'0 0.0
2017-Oct-17 06:55N 29°41' W 094°60'0 0.0
2017-Oct-17 02:07N 29°41' W 094°60'0 0.0
2017-Oct-17 01:52N 29°41' W 094°60'0 0.0
2017-Oct-17 01:28N 29°41' W 094°60'0 0.0
2017-Oct-17 00:58N 29°41' W 094°60'1 2.7
2017-Oct-17 00:30N 29°42' W 095°00'3 6.6
2017-Oct-17 00:00N 29°44' W 095°03'5 0.2
2017-Oct-15 19:41N 29°44' W 095°09'2 0.5
2017-Oct-15 16:09N 29°45' W 095°11'2 6.4
2017-Oct-15 15:53N 29°44' W 095°09'5 0.2
2017-Oct-14 10:29N 29°44' W 095°03'3 6.7
2017-Oct-14 09:59N 29°42' W 094°60'4 8.5
2017-Oct-14 09:30N 29°38' W 094°58'4 8.9
2017-Oct-14 09:00N 29°34' W 094°55'2 0.0
2017-Oct-12 08:45N 29°32' W 094°54'2 7.6
2017-Oct-12 08:30N 29°34' W 094°55'4 7.9
2017-Oct-12 08:00N 29°37' W 094°58'4 7.9
2017-Oct-12 07:30N 29°41' W 094°59'  
Track history (hours):
 
Tides and Currents Weather Stations Pressure Air Temp Water Temp Dewpoint Dewpoint Depression Visibility Wind Speed Wind Dir Waves Ship Positions

Trigger

Owner: Harley Marine Services, INC, Seattle, WA. More information available from US FCC via Universal Licensing System.

Last reported at 2017-Oct-20 15:59 UTC. Time now 2017-Oct-20 16:03 UTC.
Position N 29°44' W 095°17'.

Length 31 m; draft 3.2 m.

Type: Towing. MMSI: 367488490.

Date/timePositionNaut miles runAvg speedWind from/ knotsBaromVisibWave heightAir tempDewpointWater temp
2017-Oct-20 15:59N 29°44' W 095°17'0 0.0
2017-Oct-20 15:29N 29°44' W 095°17'0 0.0
2017-Oct-20 14:59N 29°44' W 095°17'4 3.7
2017-Oct-20 13:51N 29°45' W 095°12'2 0.1
2017-Oct-19 16:04N 29°44' W 095°14'1 0.5
2017-Oct-19 14:16N 29°43' W 095°15'0 0.0
2017-Oct-19 12:07N 29°43' W 095°15'0 0.3
2017-Oct-19 11:46N 29°43' W 095°15'3 6.7
2017-Oct-19 11:22N 29°45' W 095°12'8 0.2
2017-Oct-17 12:41N 29°44' W 095°03'2 6.4
2017-Oct-17 12:20N 29°42' W 095°01'2 5.9
2017-Oct-17 12:00N 29°41' W 094°59'0 0.6
2017-Oct-17 11:28N 29°41' W 094°60'0 0.0
2017-Oct-17 10:37N 29°41' W 094°60'0 0.0
2017-Oct-17 10:10N 29°41' W 094°60'0 0.0
2017-Oct-17 09:58N 29°41' W 094°60'0 0.0
2017-Oct-17 09:04N 29°41' W 094°60'0 0.0
2017-Oct-17 08:49N 29°41' W 094°60'0 0.0
2017-Oct-17 07:46N 29°41' W 094°60'0 0.0
2017-Oct-17 07:25N 29°41' W 094°60'0 0.0
2017-Oct-17 06:55N 29°41' W 094°60'0 0.0
2017-Oct-17 02:07N 29°41' W 094°60'0 0.0
2017-Oct-17 01:52N 29°41' W 094°60'0 0.0
2017-Oct-17 01:28N 29°41' W 094°60'0 0.0
2017-Oct-17 00:58N 29°41' W 094°60'1 2.7
2017-Oct-17 00:30N 29°42' W 095°00'3 6.6
2017-Oct-17 00:00N 29°44' W 095°03'5 0.2
2017-Oct-15 19:41N 29°44' W 095°09'2 0.5
2017-Oct-15 16:09N 29°45' W 095°11'2 6.4
2017-Oct-15 15:53N 29°44' W 095°09'5 0.2
2017-Oct-14 10:29N 29°44' W 095°03'3 6.7
2017-Oct-14 09:59N 29°42' W 094°60'4 8.5
2017-Oct-14 09:30N 29°38' W 094°58'4 8.9
2017-Oct-14 09:00N 29°34' W 094°55'2 0.0
2017-Oct-12 08:45N 29°32' W 094°54'2 7.6
2017-Oct-12 08:30N 29°34' W 094°55'4 7.9
2017-Oct-12 08:00N 29°37' W 094°58'4 7.9
2017-Oct-12 07:30N 29°41' W 094°59'  

Dump ship's entire track history